createdAt,value
2017-09-23T00:00:33.525Z,0
2017-09-23T00:01:13.979Z,0
2017-09-23T00:01:54.452Z,0
2017-09-23T00:02:34.893Z,0
2017-09-23T00:03:15.349Z,0
2017-09-23T00:03:55.810Z,0
2017-09-23T00:04:36.273Z,0
2017-09-23T00:05:16.738Z,0
2017-09-23T00:05:57.167Z,0
2017-09-23T00:06:37.637Z,0
2017-09-23T00:07:18.093Z,0
2017-09-23T00:07:58.546Z,0
2017-09-23T00:08:38.995Z,0
2017-09-23T00:09:19.449Z,0
2017-09-23T00:10:00.211Z,0
2017-09-23T00:10:41.119Z,0
2017-09-23T00:11:21.880Z,0
2017-09-23T00:12:02.344Z,0
2017-09-23T00:12:42.853Z,0
2017-09-23T00:13:23.448Z,0
2017-09-23T00:14:03.921Z,0
2017-09-23T00:14:44.340Z,0
2017-09-23T00:15:24.778Z,0
2017-09-23T00:16:05.235Z,0
2017-09-23T00:16:45.724Z,0
2017-09-23T00:17:26.372Z,0
2017-09-23T00:18:07.092Z,0
2017-09-23T00:18:47.729Z,0
2017-09-23T00:19:28.176Z,0
2017-09-23T00:20:08.632Z,0
2017-09-23T00:20:49.092Z,0
2017-09-23T00:21:29.570Z,0
2017-09-23T00:22:10.029Z,0
2017-09-23T00:22:50.477Z,0
2017-09-23T00:23:30.927Z,0
2017-09-23T00:24:11.384Z,0
2017-09-23T00:24:51.845Z,0
2017-09-23T00:25:32.292Z,0
2017-09-23T00:26:12.740Z,0
2017-09-23T00:26:53.190Z,0
2017-09-23T00:27:33.649Z,0
2017-09-23T00:28:14.115Z,0
2017-09-23T00:28:54.656Z,0
2017-09-23T00:29:35.220Z,0
2017-09-23T00:30:15.799Z,0
2017-09-23T00:30:56.372Z,0
2017-09-23T00:31:36.970Z,0
2017-09-23T00:32:17.559Z,0
2017-09-23T00:32:58.003Z,0
2017-09-23T00:33:38.447Z,0
2017-09-23T00:34:18.899Z,0
2017-09-23T00:34:59.382Z,0
2017-09-23T00:35:39.840Z,0
2017-09-23T00:36:20.289Z,0
2017-09-23T00:37:00.741Z,0
2017-09-23T00:37:41.194Z,0
2017-09-23T00:38:21.645Z,0
2017-09-23T00:39:02.099Z,0
2017-09-23T00:39:42.559Z,0
2017-09-23T00:40:23.017Z,0
2017-09-23T00:41:03.480Z,0
2017-09-23T00:41:43.936Z,0
2017-09-23T00:42:24.391Z,0
2017-09-23T00:43:04.845Z,0
2017-09-23T00:43:45.302Z,0
2017-09-23T00:44:25.746Z,0
2017-09-23T00:45:06.198Z,0
2017-09-23T00:45:46.653Z,0
2017-09-23T00:46:27.109Z,0
2017-09-23T00:47:07.563Z,0
2017-09-23T00:47:48.019Z,0
2017-09-23T00:48:28.479Z,0
2017-09-23T00:49:08.936Z,0
2017-09-23T00:49:49.396Z,0
2017-09-23T00:50:29.854Z,0
2017-09-23T00:51:10.304Z,0
2017-09-23T00:51:50.861Z,0
2017-09-23T00:52:31.313Z,0
2017-09-23T00:53:11.763Z,0
2017-09-23T00:53:52.219Z,0
2017-09-23T00:54:32.675Z,0
2017-09-23T00:55:13.120Z,0
2017-09-23T00:55:53.574Z,0
2017-09-23T00:56:34.023Z,0
2017-09-23T00:57:14.478Z,0
2017-09-23T00:57:54.939Z,0
2017-09-23T00:58:35.397Z,0
2017-09-23T00:59:15.848Z,0
2017-09-23T00:59:56.305Z,0
2017-09-23T01:00:36.776Z,0
2017-09-23T01:01:17.230Z,0
2017-09-23T01:01:57.689Z,0
2017-09-23T01:02:38.137Z,0
2017-09-23T01:03:18.590Z,0
2017-09-23T01:03:59.041Z,0
2017-09-23T01:04:39.500Z,0
2017-09-23T01:05:19.952Z,0
2017-09-23T01:06:00.407Z,0
2017-09-23T01:06:40.855Z,0
2017-09-23T01:07:21.309Z,0
2017-09-23T01:08:01.753Z,0
2017-09-23T01:08:42.215Z,0
2017-09-23T01:09:22.667Z,0
2017-09-23T01:10:03.111Z,0
2017-09-23T01:10:43.565Z,0
2017-09-23T01:11:24.022Z,0
2017-09-23T01:12:04.490Z,0
2017-09-23T01:12:44.936Z,0
2017-09-23T01:13:25.384Z,0
2017-09-23T01:14:05.855Z,0
2017-09-23T01:14:46.290Z,0
2017-09-23T01:15:26.747Z,0
2017-09-23T01:16:07.199Z,0
2017-09-23T01:16:47.645Z,0
2017-09-23T01:17:28.099Z,0
2017-09-23T01:18:08.559Z,0
2017-09-23T01:18:49.015Z,0
2017-09-23T01:19:29.469Z,0
2017-09-23T01:20:09.930Z,0
2017-09-23T01:20:50.378Z,0
2017-09-23T01:21:30.837Z,0
2017-09-23T01:22:11.293Z,0
2017-09-23T01:22:51.748Z,0
2017-09-23T01:23:32.201Z,0
2017-09-23T01:24:12.652Z,0
2017-09-23T01:24:53.100Z,0
2017-09-23T01:25:33.556Z,0
2017-09-23T01:26:14.010Z,0
2017-09-23T01:26:54.472Z,0
2017-09-23T01:27:34.926Z,0
2017-09-23T01:28:15.381Z,0
2017-09-23T01:28:55.829Z,0
2017-09-23T01:29:36.298Z,0
2017-09-23T01:30:16.743Z,0
2017-09-23T01:30:57.188Z,0
2017-09-23T01:31:37.639Z,0
2017-09-23T01:32:18.100Z,0
2017-09-23T01:32:58.563Z,0
2017-09-23T01:33:38.994Z,0
2017-09-23T01:34:19.445Z,0
2017-09-23T01:34:59.902Z,0
2017-09-23T01:35:40.353Z,0
2017-09-23T01:36:20.793Z,0
2017-09-23T01:37:01.258Z,0
2017-09-23T01:37:41.714Z,0
2017-09-23T01:38:22.172Z,0
2017-09-23T01:39:02.623Z,0
2017-09-23T01:39:43.064Z,0
2017-09-23T01:40:23.517Z,0
2017-09-23T01:41:04.006Z,0
2017-09-23T01:41:44.455Z,0
2017-09-23T01:42:24.908Z,0
2017-09-23T01:43:05.365Z,0
2017-09-23T01:43:45.819Z,0
2017-09-23T01:44:26.274Z,0
2017-09-23T01:45:06.717Z,0
2017-09-23T01:45:47.167Z,0
2017-09-23T01:46:27.634Z,0
2017-09-23T01:47:08.090Z,0
2017-09-23T01:47:48.544Z,0
2017-09-23T01:48:28.999Z,0
2017-09-23T01:49:09.496Z,0
2017-09-23T01:49:49.898Z,0
2017-09-23T01:50:30.360Z,0
2017-09-23T01:51:10.815Z,0
2017-09-23T01:51:51.276Z,0
2017-09-23T01:52:31.733Z,0
2017-09-23T01:53:12.201Z,0
2017-09-23T01:53:52.642Z,0
2017-09-23T01:54:33.087Z,0
2017-09-23T01:55:13.551Z,0
2017-09-23T01:55:54.004Z,0
2017-09-23T01:56:34.459Z,0
2017-09-23T01:57:14.912Z,0
2017-09-23T01:57:55.364Z,0
2017-09-23T01:58:35.818Z,0
2017-09-23T02:01:09.067Z,0
2017-09-23T02:01:49.502Z,0
2017-09-23T02:02:29.955Z,0
2017-09-23T02:03:10.410Z,0
2017-09-23T02:03:50.868Z,0
2017-09-23T02:04:31.310Z,0
2017-09-23T02:05:11.773Z,0
2017-09-23T02:05:52.234Z,0
2017-09-23T02:06:32.693Z,0
2017-09-23T02:07:13.141Z,0
2017-09-23T02:07:53.605Z,0
2017-09-23T02:08:34.064Z,0
2017-09-23T02:09:14.507Z,0
2017-09-23T02:09:54.967Z,0
2017-09-23T02:10:35.416Z,0
2017-09-23T02:11:15.869Z,0
2017-09-23T02:11:56.332Z,0
2017-09-23T02:12:36.779Z,0
2017-09-23T02:13:17.238Z,0
2017-09-23T02:13:57.690Z,0
2017-09-23T02:14:38.129Z,0
2017-09-23T02:15:18.584Z,0
2017-09-23T02:15:59.039Z,0
2017-09-23T02:16:39.493Z,0
2017-09-23T02:17:19.949Z,0
2017-09-23T02:18:00.395Z,0
2017-09-23T02:18:40.866Z,0
2017-09-23T02:21:13.924Z,0
2017-09-23T02:21:54.379Z,0
2017-09-23T02:22:34.841Z,0
2017-09-23T02:23:15.290Z,0
2017-09-23T02:23:55.748Z,0
2017-09-23T02:24:36.189Z,0
2017-09-23T02:25:16.649Z,0
2017-09-23T02:25:57.092Z,0
2017-09-23T02:26:37.533Z,0
2017-09-23T02:27:17.992Z,0
2017-09-23T02:27:58.449Z,0
2017-09-23T02:28:38.903Z,0
2017-09-23T02:29:19.360Z,0
2017-09-23T02:29:59.823Z,0
2017-09-23T02:30:40.279Z,0
2017-09-23T02:31:20.730Z,0
2017-09-23T02:32:01.183Z,0
2017-09-23T02:32:41.734Z,0
2017-09-23T02:33:22.190Z,0
2017-09-23T02:34:02.636Z,0
2017-09-23T02:34:43.087Z,0
2017-09-23T02:35:23.543Z,0
2017-09-23T02:36:04.000Z,0
2017-09-23T02:36:44.459Z,0
2017-09-23T02:37:24.912Z,0
2017-09-23T02:38:05.363Z,0
2017-09-23T02:38:45.819Z,0
2017-09-23T02:39:26.269Z,0
2017-09-23T02:40:06.718Z,0
2017-09-23T02:40:47.173Z,0
2017-09-23T02:41:27.627Z,0
2017-09-23T02:42:08.083Z,0
2017-09-23T02:42:48.537Z,0
2017-09-23T02:43:28.990Z,0
2017-09-23T02:44:09.449Z,0
2017-09-23T02:44:49.892Z,0
2017-09-23T02:47:02.660Z,0
2017-09-23T02:47:43.109Z,0
2017-09-23T02:48:23.564Z,0
2017-09-23T02:49:04.019Z,0
2017-09-23T02:49:44.655Z,0
2017-09-23T02:50:25.103Z,0
2017-09-23T02:51:05.543Z,0
2017-09-23T02:51:45.997Z,0
2017-09-23T02:52:26.442Z,0
2017-09-23T02:53:06.891Z,0
2017-09-23T02:53:47.335Z,0
2017-09-23T02:54:27.786Z,0
2017-09-23T02:55:08.230Z,0
2017-09-23T02:55:48.673Z,0
2017-09-23T02:56:29.159Z,0
2017-09-23T02:57:09.614Z,0
2017-09-23T02:57:50.062Z,0
2017-09-23T02:58:30.525Z,0
2017-09-23T02:59:10.981Z,0
2017-09-23T02:59:51.446Z,0
2017-09-23T03:00:31.891Z,0
2017-09-23T03:01:12.355Z,0
2017-09-23T03:01:52.839Z,0
2017-09-23T03:02:33.250Z,0
2017-09-23T03:03:13.702Z,0
2017-09-23T03:03:54.159Z,0
2017-09-23T03:04:34.732Z,0
2017-09-23T03:05:15.191Z,0
2017-09-23T03:05:55.630Z,0
2017-09-23T03:06:36.087Z,0
2017-09-23T03:07:16.545Z,0
2017-09-23T03:07:56.988Z,0
2017-09-23T03:08:37.438Z,0
2017-09-23T03:09:17.889Z,0
2017-09-23T03:09:58.341Z,0
2017-09-23T03:10:38.779Z,0
2017-09-23T03:11:19.235Z,0
2017-09-23T03:11:59.700Z,0
2017-09-23T03:12:40.157Z,0
2017-09-23T03:13:20.610Z,0
2017-09-23T03:14:01.066Z,0
2017-09-23T03:14:41.523Z,0
2017-09-23T03:15:21.966Z,0
2017-09-23T03:16:02.433Z,0
2017-09-23T03:16:42.882Z,0
2017-09-23T03:17:23.328Z,0
2017-09-23T03:18:03.810Z,0
2017-09-23T03:18:44.246Z,0
2017-09-23T03:19:24.698Z,0
2017-09-23T03:20:05.144Z,0
2017-09-23T03:20:45.576Z,0
2017-09-23T03:21:26.003Z,0
2017-09-23T03:22:06.459Z,0
2017-09-23T03:22:46.907Z,0
2017-09-23T03:23:27.362Z,0
2017-09-23T03:24:07.817Z,0
2017-09-23T03:24:48.264Z,0
2017-09-23T03:25:28.719Z,0
2017-09-23T03:26:09.185Z,0
2017-09-23T03:26:49.629Z,0
2017-09-23T03:27:30.163Z,0
2017-09-23T03:28:10.613Z,0
2017-09-23T03:28:51.055Z,0
2017-09-23T03:29:31.498Z,0
2017-09-23T03:30:11.954Z,0
2017-09-23T03:30:52.423Z,0
2017-09-23T03:31:32.884Z,0
2017-09-23T03:32:13.329Z,0
2017-09-23T03:34:51.526Z,0
2017-09-23T03:35:31.984Z,0
2017-09-23T03:36:12.437Z,0
2017-09-23T03:36:52.899Z,0
2017-09-23T03:37:33.355Z,0
2017-09-23T03:38:13.808Z,0
2017-09-23T03:38:54.272Z,0
2017-09-23T03:39:34.733Z,0
2017-09-23T03:40:15.187Z,0
2017-09-23T03:40:55.635Z,0
2017-09-23T03:41:36.085Z,0
2017-09-23T03:42:16.538Z,0
2017-09-23T03:42:56.988Z,0
2017-09-23T03:43:37.436Z,0
2017-09-23T03:44:17.899Z,0
2017-09-23T03:44:58.341Z,0
2017-09-23T03:45:38.787Z,0
2017-09-23T03:46:19.236Z,0
2017-09-23T03:46:59.695Z,0
2017-09-23T03:47:40.145Z,0
2017-09-23T03:48:20.693Z,0
2017-09-23T03:49:01.295Z,0
2017-09-23T03:49:41.763Z,0
2017-09-23T03:50:22.205Z,0
2017-09-23T03:51:02.659Z,0
2017-09-23T03:51:43.111Z,0
2017-09-23T03:52:23.565Z,0
2017-09-23T03:53:04.011Z,0
2017-09-23T03:53:44.462Z,0
2017-09-23T03:54:24.911Z,0
2017-09-23T03:55:05.364Z,0
2017-09-23T03:55:45.813Z,0
2017-09-23T03:57:58.598Z,0
2017-09-23T03:58:39.063Z,0
2017-09-23T03:59:19.515Z,0
2017-09-23T03:59:59.969Z,0
2017-09-23T04:00:40.415Z,0
2017-09-23T04:01:20.868Z,0
2017-09-23T04:02:01.322Z,0
2017-09-23T04:02:41.771Z,0
2017-09-23T04:03:22.231Z,0
2017-09-23T04:04:02.677Z,0
2017-09-23T04:04:43.134Z,0
2017-09-23T04:05:23.579Z,0
2017-09-23T04:06:04.011Z,0
2017-09-23T04:06:44.440Z,0
2017-09-23T04:07:24.892Z,0
2017-09-23T04:08:05.342Z,0
2017-09-23T04:08:45.810Z,0
2017-09-23T04:09:26.250Z,0
2017-09-23T04:10:06.706Z,0
2017-09-23T04:10:47.153Z,0
2017-09-23T04:11:27.612Z,0
2017-09-23T04:12:08.073Z,0
2017-09-23T04:12:48.522Z,0
2017-09-23T04:13:28.977Z,0
2017-09-23T04:14:09.438Z,0
2017-09-23T04:14:49.897Z,0
2017-09-23T04:15:30.345Z,0
2017-09-23T04:16:10.795Z,0
2017-09-23T04:16:51.250Z,0
2017-09-23T04:17:31.701Z,0
2017-09-23T04:18:12.189Z,0
2017-09-23T04:18:52.607Z,0
2017-09-23T04:19:33.053Z,0
2017-09-23T04:20:13.504Z,0
2017-09-23T04:20:53.960Z,0
2017-09-23T04:21:34.411Z,0
2017-09-23T04:22:14.859Z,0
2017-09-23T04:22:55.330Z,0
2017-09-23T04:23:35.770Z,0
2017-09-23T04:24:16.224Z,0
2017-09-23T04:24:56.675Z,0
2017-09-23T04:25:37.129Z,0
2017-09-23T04:26:17.577Z,0
2017-09-23T04:26:58.034Z,0
2017-09-23T04:27:38.490Z,0
2017-09-23T04:28:18.927Z,0
2017-09-23T04:28:59.397Z,0
2017-09-23T04:29:39.824Z,0
2017-09-23T04:30:20.280Z,0
2017-09-23T04:31:00.724Z,0
2017-09-23T04:31:41.182Z,0
2017-09-23T04:32:21.639Z,0
2017-09-23T04:33:02.084Z,0
2017-09-23T04:33:42.535Z,0
2017-09-23T04:34:22.993Z,0
2017-09-23T04:35:03.452Z,0
2017-09-23T04:35:43.916Z,0
2017-09-23T04:36:24.380Z,0
2017-09-23T04:37:04.826Z,0
2017-09-23T04:37:45.274Z,0
2017-09-23T04:38:25.720Z,0
2017-09-23T04:39:06.169Z,0
2017-09-23T04:39:46.608Z,0
2017-09-23T04:40:27.073Z,0
2017-09-23T04:41:07.531Z,0
2017-09-23T04:41:47.980Z,0
2017-09-23T04:42:28.442Z,0
2017-09-23T04:43:08.903Z,0
2017-09-23T04:43:49.355Z,0
2017-09-23T04:44:29.811Z,0
2017-09-23T04:45:10.264Z,0
2017-09-23T04:45:50.716Z,0
2017-09-23T04:46:31.185Z,0
2017-09-23T04:47:11.653Z,0
2017-09-23T04:47:52.101Z,0
2017-09-23T04:48:32.556Z,0
2017-09-23T04:49:12.994Z,0
2017-09-23T04:49:53.453Z,0
2017-09-23T04:50:33.909Z,0
2017-09-23T04:51:14.362Z,0
2017-09-23T04:51:54.826Z,0
2017-09-23T04:52:35.274Z,0
2017-09-23T04:53:15.730Z,0
2017-09-23T04:53:56.175Z,0
2017-09-23T04:54:36.633Z,0
2017-09-23T04:55:17.105Z,0
2017-09-23T04:55:57.547Z,0
2017-09-23T04:56:38.037Z,0
2017-09-23T04:57:18.462Z,0
2017-09-23T04:57:58.914Z,0
2017-09-23T04:58:39.367Z,0
2017-09-23T04:59:19.806Z,0
2017-09-23T05:00:00.262Z,0
2017-09-23T05:00:40.745Z,0
2017-09-23T05:01:21.194Z,0
2017-09-23T05:02:01.663Z,0
2017-09-23T05:02:42.117Z,0
2017-09-23T05:03:22.586Z,0
2017-09-23T05:04:03.075Z,0
2017-09-23T05:04:43.534Z,0
2017-09-23T05:05:23.999Z,0
2017-09-23T05:06:04.454Z,0
2017-09-23T05:06:44.916Z,0
2017-09-23T05:07:25.375Z,0
2017-09-23T05:08:05.837Z,0
2017-09-23T05:08:46.290Z,0
2017-09-23T05:09:26.745Z,0
2017-09-23T05:10:07.150Z,0
2017-09-23T05:10:47.622Z,0
2017-09-23T05:11:28.071Z,0
2017-09-23T05:12:08.528Z,0
2017-09-23T05:12:48.983Z,0
2017-09-23T05:13:29.440Z,0
2017-09-23T05:14:09.906Z,0
2017-09-23T05:14:50.373Z,0
2017-09-23T05:15:30.830Z,0
2017-09-23T05:16:11.308Z,0
2017-09-23T05:16:51.776Z,0
2017-09-23T05:17:32.225Z,0
2017-09-23T05:18:12.669Z,0
2017-09-23T05:18:53.128Z,0
2017-09-23T05:19:33.583Z,0
2017-09-23T05:20:14.045Z,0
2017-09-23T05:20:54.493Z,0
2017-09-23T05:21:34.985Z,0
2017-09-23T05:22:15.436Z,0
2017-09-23T05:22:55.892Z,0
2017-09-23T05:23:36.345Z,0
2017-09-23T05:24:16.800Z,0
2017-09-23T05:24:57.249Z,0
2017-09-23T05:25:37.701Z,0
2017-09-23T05:26:18.158Z,0
2017-09-23T05:26:58.613Z,0
2017-09-23T05:27:39.069Z,0
2017-09-23T05:28:19.520Z,0
2017-09-23T05:28:59.976Z,0
2017-09-23T05:29:40.446Z,0
2017-09-23T05:30:20.863Z,0
2017-09-23T05:31:01.380Z,0
2017-09-23T05:31:41.833Z,0
2017-09-23T05:32:22.308Z,0
2017-09-23T05:33:02.816Z,0
2017-09-23T05:33:43.242Z,0
2017-09-23T05:34:23.680Z,0
2017-09-23T05:35:04.142Z,0
2017-09-23T05:35:44.597Z,0
2017-09-23T05:36:25.049Z,0
2017-09-23T05:37:05.499Z,0
2017-09-23T05:37:45.957Z,0
2017-09-23T05:38:26.400Z,0
2017-09-23T05:39:06.862Z,0
2017-09-23T05:39:47.312Z,0
2017-09-23T05:40:27.774Z,0
2017-09-23T05:41:08.217Z,0
2017-09-23T05:41:48.688Z,0
2017-09-23T05:42:29.124Z,0
2017-09-23T05:43:09.580Z,0
2017-09-23T05:43:50.036Z,0
2017-09-23T05:44:30.492Z,0
2017-09-23T05:45:10.930Z,0
2017-09-23T05:45:51.379Z,0
2017-09-23T05:46:31.889Z,0
2017-09-23T05:47:12.342Z,0
2017-09-23T05:47:52.796Z,0
2017-09-23T05:48:33.238Z,0
2017-09-23T05:49:13.686Z,0
2017-09-23T05:49:54.670Z,0
2017-09-23T05:50:34.974Z,0
2017-09-23T05:51:15.425Z,0
2017-09-23T05:51:55.919Z,0
2017-09-23T05:52:36.370Z,0
2017-09-23T05:53:16.819Z,0
2017-09-23T05:53:57.277Z,0
2017-09-23T05:54:37.746Z,0
2017-09-23T05:55:18.198Z,0
2017-09-23T05:55:58.646Z,0
2017-09-23T05:56:39.095Z,0
2017-09-23T05:57:19.553Z,0
2017-09-23T05:58:00.002Z,0
2017-09-23T05:58:40.460Z,0
2017-09-23T05:59:20.921Z,0
2017-09-23T06:00:01.374Z,0
2017-09-23T06:00:41.831Z,0
2017-09-23T06:01:22.285Z,0
2017-09-23T06:02:02.743Z,0
2017-09-23T06:02:43.202Z,0
2017-09-23T06:03:23.659Z,0
2017-09-23T06:04:04.118Z,0
2017-09-23T06:04:44.568Z,0
2017-09-23T06:05:25.261Z,0
2017-09-23T06:06:06.561Z,0
2017-09-23T06:06:47.035Z,0
2017-09-23T06:07:27.510Z,0
2017-09-23T06:08:07.931Z,0
2017-09-23T06:08:48.381Z,0
2017-09-23T06:09:28.847Z,0
2017-09-23T06:10:09.331Z,0
2017-09-23T06:10:49.784Z,0
2017-09-23T06:11:30.241Z,0
2017-09-23T06:12:10.699Z,0
2017-09-23T06:12:51.165Z,0
2017-09-23T06:13:31.625Z,0
2017-09-23T06:14:12.111Z,0
2017-09-23T06:14:52.578Z,0
2017-09-23T06:15:33.023Z,0
2017-09-23T06:16:13.483Z,0
2017-09-23T06:16:53.936Z,0
2017-09-23T06:17:34.391Z,0
2017-09-23T06:18:14.844Z,0
2017-09-23T06:18:55.296Z,0
2017-09-23T06:19:35.756Z,0
2017-09-23T06:20:16.202Z,0
2017-09-23T06:22:49.257Z,0
2017-09-23T06:23:29.719Z,0
2017-09-23T06:24:10.187Z,0
2017-09-23T06:24:50.643Z,0
2017-09-23T06:25:31.092Z,0
2017-09-23T06:26:11.550Z,0
2017-09-23T06:28:44.617Z,0
2017-09-23T06:29:25.071Z,0
2017-09-23T06:30:05.526Z,0
2017-09-23T06:30:45.982Z,0
2017-09-23T06:31:26.436Z,0
2017-09-23T06:32:06.901Z,0
2017-09-23T06:32:47.327Z,0
2017-09-23T06:33:27.792Z,0
2017-09-23T06:34:08.271Z,0
2017-09-23T06:34:48.746Z,0
2017-09-23T06:35:29.214Z,0
2017-09-23T06:36:09.681Z,0
2017-09-23T06:36:50.112Z,0
2017-09-23T06:37:30.554Z,0
2017-09-23T06:38:10.996Z,0
2017-09-23T06:38:51.470Z,0
2017-09-23T06:39:31.922Z,0
2017-09-23T06:40:12.393Z,0
2017-09-23T06:40:52.848Z,0
2017-09-23T06:43:20.808Z,0
2017-09-23T06:44:01.248Z,0
2017-09-23T06:44:41.710Z,0
2017-09-23T06:45:22.154Z,0
2017-09-23T06:46:02.603Z,0
2017-09-23T06:46:43.031Z,0
2017-09-23T06:47:23.527Z,0
2017-09-23T06:48:03.991Z,0
2017-09-23T06:48:44.438Z,0
2017-09-23T06:49:24.891Z,0
2017-09-23T06:50:05.341Z,0
2017-09-23T06:50:45.798Z,0
2017-09-23T06:51:26.244Z,0
2017-09-23T06:52:06.693Z,0
2017-09-23T06:52:47.124Z,0
2017-09-23T06:53:27.568Z,0
2017-09-23T06:54:08.027Z,0
2017-09-23T06:54:48.479Z,0
2017-09-23T06:55:28.946Z,0
2017-09-23T06:56:09.448Z,0
2017-09-23T06:56:49.917Z,0
2017-09-23T06:59:22.979Z,0
2017-09-23T07:00:03.435Z,0
2017-09-23T07:00:43.899Z,0
2017-09-23T07:01:24.339Z,0
2017-09-23T07:02:04.793Z,0
2017-09-23T07:02:45.260Z,0
2017-09-23T07:03:25.723Z,0
2017-09-23T07:04:06.188Z,0
2017-09-23T07:04:46.625Z,0
2017-09-23T07:05:27.090Z,0
2017-09-23T07:06:07.539Z,0
2017-09-23T07:06:47.990Z,0
2017-09-23T07:07:28.441Z,0
2017-09-23T07:09:46.376Z,0
2017-09-23T07:10:26.829Z,0
2017-09-23T07:11:07.286Z,0
2017-09-23T07:11:47.739Z,0
2017-09-23T07:12:28.189Z,0
2017-09-23T07:13:08.650Z,0
2017-09-23T07:13:49.109Z,0
2017-09-23T07:14:29.560Z,0
2017-09-23T07:15:10.002Z,0
2017-09-23T07:15:50.467Z,0
2017-09-23T07:16:30.917Z,0
2017-09-23T07:17:11.362Z,0
2017-09-23T07:17:51.803Z,0
2017-09-23T07:18:32.241Z,0
2017-09-23T07:19:12.668Z,0
2017-09-23T07:19:53.119Z,0
2017-09-23T07:20:33.571Z,0
2017-09-23T07:21:14.030Z,0
2017-09-23T07:21:54.469Z,0
2017-09-23T07:22:34.932Z,0
2017-09-23T07:23:15.387Z,0
2017-09-23T07:23:55.835Z,0
2017-09-23T07:24:36.273Z,0
2017-09-23T07:25:16.733Z,0
2017-09-23T07:25:57.185Z,0
2017-09-23T07:26:37.631Z,0
2017-09-23T07:27:18.090Z,0
2017-09-23T07:27:58.537Z,0
2017-09-23T07:28:38.993Z,0
2017-09-23T07:29:19.468Z,0
2017-09-23T07:30:00.009Z,0
2017-09-23T07:30:40.453Z,0
2017-09-23T07:31:20.915Z,0
2017-09-23T07:33:53.998Z,0
2017-09-23T07:34:34.443Z,0
2017-09-23T07:35:14.881Z,0
2017-09-23T07:35:55.317Z,0
2017-09-23T07:36:35.779Z,0
2017-09-23T07:37:16.225Z,0
2017-09-23T07:37:56.685Z,0
2017-09-23T07:38:37.140Z,0
2017-09-23T07:39:17.591Z,0
2017-09-23T07:39:58.052Z,0
2017-09-23T07:40:38.508Z,0
2017-09-23T07:41:18.948Z,0
2017-09-23T07:41:59.404Z,0
2017-09-23T07:42:39.849Z,0
2017-09-23T07:43:20.289Z,0
2017-09-23T07:44:00.758Z,0
2017-09-23T07:44:41.230Z,0
2017-09-23T07:45:21.684Z,0
2017-09-23T07:46:02.139Z,0
2017-09-23T07:46:42.583Z,0
2017-09-23T07:47:23.041Z,0
2017-09-23T07:48:03.501Z,0
2017-09-23T07:48:43.959Z,0
2017-09-23T07:49:24.464Z,0
2017-09-23T07:50:04.906Z,0
2017-09-23T07:50:45.526Z,0
2017-09-23T07:51:26.059Z,0
2017-09-23T07:52:06.491Z,0
2017-09-23T07:52:46.941Z,0
2017-09-23T07:53:27.401Z,0
2017-09-23T07:54:07.831Z,0
2017-09-23T07:56:25.899Z,0
2017-09-23T07:57:06.450Z,0
2017-09-23T07:57:46.904Z,0
2017-09-23T07:58:27.387Z,0
2017-09-23T07:59:07.836Z,0
2017-09-23T07:59:48.286Z,0
2017-09-23T08:00:28.737Z,0
2017-09-23T08:01:09.191Z,0
2017-09-23T08:01:49.644Z,0
2017-09-23T08:02:30.098Z,0
2017-09-23T08:03:10.564Z,0
2017-09-23T08:03:51.006Z,0
2017-09-23T08:04:31.456Z,0
2017-09-23T08:05:11.912Z,0
2017-09-23T08:05:52.380Z,0
2017-09-23T08:06:32.823Z,0
2017-09-23T08:07:13.270Z,0
2017-09-23T08:07:53.751Z,0
2017-09-23T08:08:34.188Z,0
2017-09-23T08:09:14.642Z,0
2017-09-23T08:09:55.098Z,0
2017-09-23T08:10:35.550Z,0
2017-09-23T08:11:15.996Z,0
2017-09-23T08:11:56.456Z,0
2017-09-23T08:12:36.916Z,0
2017-09-23T08:13:17.469Z,0
2017-09-23T08:13:57.964Z,0
2017-09-23T08:14:38.411Z,0
2017-09-23T08:15:18.868Z,0
2017-09-23T08:15:59.313Z,0
2017-09-23T08:16:39.772Z,0
2017-09-23T08:17:20.229Z,0
2017-09-23T08:18:00.682Z,0
2017-09-23T08:18:41.131Z,0
2017-09-23T08:19:21.588Z,0
2017-09-23T08:20:02.063Z,0
2017-09-23T08:20:42.518Z,0
2017-09-23T08:21:22.976Z,0
2017-09-23T08:22:03.423Z,0
2017-09-23T08:22:43.872Z,0
2017-09-23T08:23:24.330Z,0
2017-09-23T08:24:04.794Z,0
2017-09-23T08:24:45.250Z,0
2017-09-23T08:25:25.706Z,0
2017-09-23T08:26:06.170Z,0
2017-09-23T08:26:46.627Z,0
2017-09-23T08:27:27.082Z,0
2017-09-23T08:28:07.535Z,0
2017-09-23T08:28:47.997Z,0
2017-09-23T08:29:28.459Z,0
2017-09-23T08:30:08.925Z,0
2017-09-23T08:30:49.370Z,0
2017-09-23T08:31:29.829Z,0
2017-09-23T08:32:10.281Z,0
2017-09-23T08:32:50.747Z,0
2017-09-23T08:33:31.207Z,70
2017-09-23T08:34:11.662Z,225
2017-09-23T08:34:52.119Z,230
2017-09-23T08:35:32.574Z,235
2017-09-23T08:36:13.023Z,240
2017-09-23T08:36:53.479Z,155
2017-09-23T08:37:33.936Z,155
2017-09-23T08:38:14.404Z,150
2017-09-23T08:38:54.841Z,150
2017-09-23T08:39:35.305Z,140
2017-09-23T08:40:15.759Z,140
2017-09-23T08:40:56.219Z,155
2017-09-23T08:41:36.668Z,150
2017-09-23T08:42:17.120Z,150
2017-09-23T08:42:57.572Z,150
2017-09-23T08:43:38.033Z,155
2017-09-23T08:44:18.487Z,160
2017-09-23T08:44:58.953Z,160
2017-09-23T08:45:39.424Z,155
2017-09-23T08:46:19.859Z,160
2017-09-23T08:47:00.298Z,155
2017-09-23T08:47:40.786Z,165
2017-09-23T08:48:21.244Z,165
2017-09-23T08:49:01.688Z,160
2017-09-23T08:49:42.154Z,160
2017-09-23T08:50:22.611Z,160
2017-09-23T08:51:03.058Z,165
2017-09-23T08:51:43.513Z,165
2017-09-23T08:52:23.969Z,165
2017-09-23T08:53:04.429Z,160
2017-09-23T08:53:44.901Z,160
2017-09-23T08:54:25.329Z,165
2017-09-23T08:55:05.798Z,165
2017-09-23T08:55:46.258Z,165
2017-09-23T08:56:26.710Z,165
2017-09-23T08:57:07.224Z,165
2017-09-23T08:57:47.625Z,165
2017-09-23T08:58:28.076Z,165
2017-09-23T08:59:08.530Z,165
2017-09-23T08:59:49.037Z,165
2017-09-23T09:00:29.490Z,165
2017-09-23T09:01:09.947Z,165
2017-09-23T09:01:50.419Z,165
2017-09-23T09:02:30.845Z,165
2017-09-23T09:04:43.655Z,165
2017-09-23T09:05:24.096Z,165
2017-09-23T09:06:04.549Z,165
2017-09-23T09:06:45.003Z,165
2017-09-23T09:07:25.459Z,165
2017-09-23T09:08:05.920Z,165
2017-09-23T09:08:46.396Z,165
2017-09-23T09:09:26.847Z,165
2017-09-23T09:10:07.302Z,165
2017-09-23T09:10:47.749Z,170
2017-09-23T09:11:28.204Z,170
2017-09-23T09:12:08.642Z,170
2017-09-23T09:12:49.097Z,170
2017-09-23T09:13:29.560Z,170
2017-09-23T09:14:10.023Z,170
2017-09-23T09:14:50.513Z,170
2017-09-23T09:15:30.971Z,175
2017-09-23T09:16:11.456Z,170
2017-09-23T09:16:51.907Z,170
2017-09-23T09:17:32.368Z,170
2017-09-23T09:18:12.819Z,170
2017-09-23T09:18:53.271Z,170
2017-09-23T09:19:33.728Z,170
2017-09-23T09:20:14.271Z,170
2017-09-23T09:20:54.625Z,170
2017-09-23T09:21:35.083Z,175
2017-09-23T09:22:15.537Z,175
2017-09-23T09:22:55.987Z,175
2017-09-23T09:23:36.437Z,170
2017-09-23T09:24:16.902Z,165
2017-09-23T09:24:57.356Z,170
2017-09-23T09:25:37.808Z,170
2017-09-23T09:26:18.261Z,175
2017-09-23T09:26:58.728Z,175
2017-09-23T09:27:39.186Z,180
2017-09-23T09:28:19.647Z,175
2017-09-23T09:29:00.095Z,175
2017-09-23T09:29:40.563Z,180
2017-09-23T09:30:20.997Z,180
2017-09-23T09:31:01.461Z,180
2017-09-23T09:31:41.888Z,180
2017-09-23T09:32:22.387Z,185
2017-09-23T09:33:02.889Z,180
2017-09-23T09:33:43.321Z,180
2017-09-23T09:34:23.760Z,180
2017-09-23T09:35:04.198Z,180
2017-09-23T09:35:44.652Z,180
2017-09-23T09:36:25.094Z,180
2017-09-23T09:37:05.551Z,180
2017-09-23T09:37:46.008Z,180
2017-09-23T09:38:26.466Z,180
2017-09-23T09:39:06.923Z,180
2017-09-23T09:39:47.376Z,180
2017-09-23T09:40:27.839Z,180
2017-09-23T09:41:08.292Z,175
2017-09-23T09:41:48.748Z,175
2017-09-23T09:42:29.211Z,175
2017-09-23T09:44:57.180Z,185
2017-09-23T09:45:37.637Z,180
2017-09-23T09:46:18.090Z,180
2017-09-23T09:46:58.542Z,180
2017-09-23T09:47:38.996Z,180
2017-09-23T09:48:19.459Z,180
2017-09-23T09:48:59.907Z,180
2017-09-23T09:49:40.378Z,180
2017-09-23T09:50:20.867Z,180
2017-09-23T09:51:01.307Z,180
2017-09-23T09:51:41.734Z,180
2017-09-23T09:52:22.194Z,180
2017-09-23T09:53:02.647Z,180
2017-09-23T09:53:43.099Z,175
2017-09-23T09:54:23.554Z,175
2017-09-23T09:55:04.009Z,175
2017-09-23T09:55:44.491Z,175
2017-09-23T09:56:24.936Z,170
2017-09-23T09:57:05.396Z,170
2017-09-23T09:57:45.839Z,175
2017-09-23T09:58:26.296Z,175
2017-09-23T09:59:06.744Z,175
2017-09-23T09:59:47.201Z,175
2017-09-23T10:00:27.656Z,175
2017-09-23T10:01:08.129Z,180
2017-09-23T10:01:48.584Z,180
2017-09-23T10:02:29.033Z,180
2017-09-23T10:03:09.486Z,175
2017-09-23T10:03:49.939Z,180
2017-09-23T10:04:30.390Z,180
2017-09-23T10:05:10.839Z,180
2017-09-23T10:05:51.271Z,180
2017-09-23T10:06:31.735Z,180
2017-09-23T10:07:12.162Z,180
2017-09-23T10:07:52.665Z,180
2017-09-23T10:08:33.116Z,180
2017-09-23T10:09:13.562Z,180
2017-09-23T10:09:54.018Z,180
2017-09-23T10:10:34.479Z,180
2017-09-23T10:11:14.933Z,180
2017-09-23T10:11:55.394Z,175
2017-09-23T10:12:35.855Z,170
2017-09-23T10:13:16.300Z,170
2017-09-23T10:13:56.757Z,175
2017-09-23T10:14:37.208Z,175
2017-09-23T10:15:17.653Z,175
2017-09-23T10:15:58.059Z,175